createdAt,value
2019-06-10T00:00:31.657Z,4.12
2019-06-10T00:03:04.443Z,4.12
2019-06-10T00:05:35.528Z,3.85
2019-06-10T00:08:07.106Z,4.15
2019-06-10T00:10:38.217Z,3.60
2019-06-10T00:13:11.454Z,3.20
2019-06-10T00:15:42.101Z,3.70
2019-06-10T00:18:34.171Z,3.98
2019-06-10T00:20:46.220Z,4.10
2019-06-10T00:23:17.306Z,4.12
2019-06-10T00:25:48.372Z,4.20
2019-06-10T00:28:21.575Z,3.95
2019-06-10T00:30:52.091Z,4.15
2019-06-10T00:33:23.288Z,4.70
2019-06-10T00:35:56.091Z,4.42
2019-06-10T00:38:27.153Z,4.10
2019-06-10T00:40:59.993Z,4.60
2019-06-10T00:43:31.120Z,5.15
2019-06-10T00:46:04.325Z,4.70
2019-06-10T00:48:34.923Z,4.78
2019-06-10T00:51:07.249Z,4.67
2019-06-10T00:53:38.303Z,5.05
2019-06-10T00:56:12.156Z,5.00
2019-06-10T00:58:42.116Z,5.20
2019-06-10T01:01:14.735Z,4.25
2019-06-10T01:03:45.980Z,4.33
2019-06-10T01:06:17.007Z,4.78
2019-06-10T01:08:48.005Z,4.40
2019-06-10T01:11:26.658Z,4.65
2019-06-10T01:13:53.668Z,4.85
2019-06-10T01:16:26.383Z,5.10
2019-06-10T01:19:01.269Z,5.10
2019-06-10T01:21:31.439Z,4.53
2019-06-10T01:24:02.633Z,4.40
2019-06-10T01:26:33.723Z,5.17
2019-06-10T01:29:05.663Z,4.12
2019-06-10T01:31:36.829Z,4.58
2019-06-10T01:34:07.838Z,4.03
2019-06-10T01:36:40.583Z,4.60
2019-06-10T01:39:14.494Z,4.20
2019-06-10T01:41:44.629Z,4.37
2019-06-10T01:44:16.453Z,4.95
2019-06-10T01:46:48.306Z,4.28
2019-06-10T01:49:21.304Z,4.78
2019-06-10T01:51:52.022Z,4.17
2019-06-10T01:54:23.016Z,4.67
2019-06-10T01:56:54.052Z,4.83
2019-06-10T01:59:25.049Z,4.72
2019-06-10T02:01:57.798Z,5.33
2019-06-10T02:04:31.775Z,5.03
2019-06-10T02:07:01.683Z,4.85
2019-06-10T02:09:32.762Z,4.87
2019-06-10T02:12:03.895Z,4.00
2019-06-10T02:14:34.963Z,4.40
2019-06-10T02:17:06.066Z,4.50
2019-06-10T02:19:37.127Z,4.37
2019-06-10T02:22:08.186Z,4.62
2019-06-10T02:24:41.673Z,4.75
2019-06-10T02:27:14.457Z,4.25
2019-06-10T02:29:45.475Z,4.22
2019-06-10T02:32:22.544Z,4.30
2019-06-10T02:35:03.477Z,4.35
2019-06-10T02:37:30.787Z,4.50
2019-06-10T02:39:54.932Z,4.25
2019-06-10T02:42:30.665Z,4.55
2019-06-10T02:45:03.538Z,4.22
2019-06-10T02:47:37.921Z,4.10
2019-06-10T02:50:14.216Z,4.83
2019-06-10T02:52:44.392Z,4.78
2019-06-10T02:55:17.713Z,4.50
2019-06-10T02:57:48.430Z,4.47
2019-06-10T03:00:26.774Z,5.00
2019-06-10T03:02:53.110Z,4.50
2019-06-10T03:05:29.861Z,4.58
2019-06-10T03:07:57.133Z,4.47
2019-06-10T03:10:32.482Z,4.65
2019-06-10T03:13:02.441Z,4.90
2019-06-10T03:15:35.348Z,5.50
2019-06-10T03:18:06.418Z,5.00
2019-06-10T03:20:37.425Z,4.62
2019-06-10T03:23:08.522Z,4.70
2019-06-10T03:25:39.525Z,5.00
2019-06-10T03:28:12.067Z,5.15
2019-06-10T03:30:52.942Z,5.50
2019-06-10T03:33:22.334Z,4.70
2019-06-10T03:35:52.797Z,4.25
2019-06-10T03:38:26.985Z,4.55
2019-06-10T03:40:56.466Z,4.70
2019-06-10T03:43:27.927Z,4.47
2019-06-10T03:45:59.055Z,4.47
2019-06-10T03:48:32.807Z,5.12
2019-06-10T03:51:04.043Z,4.75
2019-06-10T03:53:35.135Z,5.10
2019-06-10T03:56:06.297Z,5.50
2019-06-10T03:58:37.322Z,5.40
2019-06-10T04:01:08.412Z,5.03
2019-06-10T04:03:39.430Z,5.17
2019-06-10T04:06:12.830Z,5.25
2019-06-10T04:08:43.511Z,4.70
2019-06-10T04:11:14.533Z,5.67
2019-06-10T04:13:45.542Z,5.40
2019-06-10T04:16:17.616Z,5.50
2019-06-10T04:18:48.641Z,5.47
2019-06-10T04:21:22.319Z,5.42
2019-06-10T04:23:52.934Z,5.87
2019-06-10T04:26:25.247Z,6.42
2019-06-10T04:28:56.866Z,6.28
2019-06-10T04:31:28.067Z,6.67
2019-06-10T04:34:02.955Z,6.35
2019-06-10T04:36:34.636Z,6.37
2019-06-10T04:39:06.892Z,6.08
2019-06-10T04:41:37.923Z,6.45
2019-06-10T04:44:08.991Z,5.42
2019-06-10T04:46:39.988Z,5.90
2019-06-10T04:49:13.178Z,5.53
2019-06-10T04:51:43.780Z,6.03
2019-06-10T04:54:14.846Z,5.50
2019-06-10T04:56:45.937Z,5.83
2019-06-10T04:59:16.948Z,6.20
2019-06-10T05:01:48.066Z,5.42
2019-06-10T05:04:19.152Z,5.65
2019-06-10T05:06:52.542Z,5.90
2019-06-10T05:09:24.454Z,5.87
2019-06-10T05:11:55.732Z,6.35
2019-06-10T05:14:28.734Z,6.05
2019-06-10T05:17:02.241Z,6.03
2019-06-10T05:19:33.873Z,6.20
2019-06-10T05:22:05.056Z,6.70
2019-06-10T05:24:36.092Z,6.20
2019-06-10T05:27:07.095Z,5.87
2019-06-10T05:29:38.117Z,6.33
2019-06-10T05:32:09.124Z,5.87
2019-06-10T05:34:40.256Z,6.40
2019-06-10T05:37:12.135Z,6.37
2019-06-10T05:39:43.222Z,6.40
2019-06-10T05:42:14.266Z,6.03
2019-06-10T05:44:45.280Z,6.65
2019-06-10T05:47:16.648Z,5.90
2019-06-10T05:49:47.665Z,6.00
2019-06-10T05:52:18.676Z,5.22
2019-06-10T05:54:51.985Z,5.50
2019-06-10T05:57:24.250Z,5.12
2019-06-10T05:59:55.206Z,5.75
2019-06-10T06:02:26.205Z,4.80
2019-06-10T06:04:57.287Z,5.22
2019-06-10T06:07:29.165Z,4.70
2019-06-10T06:10:02.428Z,4.60
2019-06-10T06:12:35.723Z,4.90
2019-06-10T06:15:07.122Z,4.87
2019-06-10T06:17:38.646Z,4.40
2019-06-10T06:20:10.024Z,4.20
2019-06-10T06:22:42.820Z,3.70
2019-06-10T06:25:15.903Z,4.28
2019-06-10T06:27:46.949Z,4.03
2019-06-10T06:30:19.083Z,4.00
2019-06-10T06:32:50.062Z,4.78
2019-06-10T06:35:22.709Z,3.72
2019-06-10T06:37:54.111Z,4.58
2019-06-10T06:40:25.225Z,3.58
2019-06-10T06:42:56.180Z,3.60
2019-06-10T06:45:27.638Z,4.12
2019-06-10T06:47:59.682Z,4.33
2019-06-10T06:50:33.086Z,4.05
2019-06-10T06:53:21.024Z,3.87
2019-06-10T06:55:36.930Z,3.52
2019-06-10T06:58:09.069Z,3.70
2019-06-10T07:00:55.713Z,3.70
2019-06-10T07:03:12.985Z,3.80
2019-06-10T07:05:44.405Z,3.60
2019-06-10T07:08:16.154Z,3.62
2019-06-10T07:10:48.486Z,4.12
2019-06-10T07:13:22.057Z,4.30
2019-06-10T07:15:53.486Z,3.33
2019-06-10T07:18:24.629Z,3.52
2019-06-10T07:20:55.706Z,3.22
2019-06-10T07:23:26.703Z,2.77
2019-06-10T07:25:57.709Z,3.45
2019-06-10T07:28:28.769Z,2.85
2019-06-10T07:31:03.328Z,3.50
2019-06-10T07:33:37.495Z,2.40
2019-06-10T07:36:07.390Z,2.50
2019-06-10T07:38:40.990Z,3.35
2019-06-10T07:41:12.637Z,2.67
2019-06-10T07:43:49.437Z,2.92
2019-06-10T07:46:23.193Z,3.37
2019-06-10T07:48:56.612Z,3.50
2019-06-10T07:51:27.206Z,3.58
2019-06-10T07:53:58.216Z,3.70
2019-06-10T07:56:36.322Z,3.67
2019-06-10T07:59:04.036Z,3.05
2019-06-10T08:01:37.649Z,3.17
2019-06-10T08:04:08.965Z,3.00
2019-06-10T08:06:42.855Z,3.37
2019-06-10T08:09:12.978Z,3.70
2019-06-10T08:11:46.815Z,3.40
2019-06-10T08:14:16.887Z,3.40
2019-06-10T08:16:48.665Z,3.42
2019-06-10T08:19:31.517Z,3.42
2019-06-10T08:21:53.639Z,4.30
2019-06-10T08:24:24.779Z,4.60
2019-06-10T08:26:55.947Z,4.30
2019-06-10T08:29:26.945Z,3.70
2019-06-10T08:31:58.300Z,3.70
2019-06-10T08:34:29.309Z,3.45
2019-06-10T08:37:04.081Z,3.75
2019-06-10T08:39:33.697Z,3.55
2019-06-10T08:42:07.119Z,3.40
2019-06-10T08:44:38.819Z,3.20
2019-06-10T08:47:12.428Z,3.40
2019-06-10T08:49:46.210Z,3.40
2019-06-10T08:52:16.305Z,4.42
2019-06-10T08:54:50.949Z,2.98
2019-06-10T08:57:23.229Z,2.80
2019-06-10T08:59:53.506Z,2.80
2019-06-10T09:02:24.492Z,2.98
2019-06-10T09:04:55.488Z,2.95
2019-06-10T09:07:26.509Z,2.70
2019-06-10T09:09:57.588Z,2.90
2019-06-10T09:12:33.959Z,2.95
2019-06-10T09:15:03.677Z,3.17
2019-06-10T09:17:34.039Z,3.30
2019-06-10T09:20:08.197Z,3.17
2019-06-10T09:22:41.186Z,4.60
2019-06-10T09:25:12.540Z,3.90
2019-06-10T09:27:46.470Z,2.92
2019-06-10T09:30:16.494Z,3.47
2019-06-10T09:32:51.387Z,2.67
2019-06-10T09:35:24.103Z,2.27
2019-06-10T09:37:55.861Z,2.45
2019-06-10T09:40:47.531Z,2.83
2019-06-10T09:43:14.917Z,2.42
2019-06-10T09:45:50.211Z,2.55
2019-06-10T09:48:23.081Z,2.25
2019-06-10T09:50:58.705Z,2.60
2019-06-10T09:53:39.096Z,2.25
2019-06-10T09:55:59.951Z,2.67
2019-06-10T09:58:32.932Z,2.27
2019-06-10T10:01:05.890Z,2.90
2019-06-10T10:03:37.039Z,2.17
2019-06-10T10:06:15.400Z,2.22
2019-06-10T10:08:46.822Z,2.37
2019-06-10T10:11:14.196Z,2.40
2019-06-10T10:13:47.655Z,2.30
2019-06-10T10:16:19.566Z,2.83
2019-06-10T10:18:57.519Z,2.40
2019-06-10T10:21:23.265Z,2.40
2019-06-10T10:24:06.917Z,1.95
2019-06-10T10:26:27.056Z,2.33
2019-06-10T10:28:58.011Z,2.05
2019-06-10T10:31:29.007Z,2.08
2019-06-10T10:34:02.558Z,2.17
2019-06-10T10:36:33.664Z,2.22
2019-06-10T10:39:07.957Z,1.90
2019-06-10T10:41:39.430Z,1.98
2019-06-10T10:44:13.792Z,2.10
2019-06-10T10:46:45.662Z,1.90
2019-06-10T10:49:17.135Z,2.02
2019-06-10T10:51:49.710Z,1.85
2019-06-10T10:54:32.179Z,2.08
2019-06-10T10:56:58.370Z,2.45
2019-06-10T10:59:26.239Z,2.33
2019-06-10T11:01:57.309Z,2.40
2019-06-10T11:04:28.356Z,2.40
2019-06-10T11:07:01.165Z,2.47
2019-06-10T11:09:33.113Z,2.00
2019-06-10T11:12:04.322Z,2.25
2019-06-10T11:14:35.614Z,2.12
2019-06-10T11:17:06.612Z,2.62
2019-06-10T11:19:37.711Z,2.72
2019-06-10T11:22:08.698Z,2.42
2019-06-10T11:24:42.279Z,2.95
2019-06-10T11:27:12.820Z,3.10
2019-06-10T11:29:44.142Z,2.98
2019-06-10T11:32:15.155Z,2.87
2019-06-10T11:34:46.321Z,3.60
2019-06-10T11:37:17.542Z,2.35
2019-06-10T11:39:48.568Z,2.20
2019-06-10T11:42:19.693Z,2.75
2019-06-10T11:44:54.386Z,2.50
2019-06-10T11:47:23.559Z,2.00
2019-06-10T11:49:55.413Z,2.10
2019-06-10T11:52:27.581Z,2.17
2019-06-10T11:55:11.637Z,1.70
2019-06-10T11:57:32.921Z,1.75
2019-06-10T12:00:16.604Z,1.92
2019-06-10T12:02:48.241Z,1.82
2019-06-10T12:05:20.424Z,1.50
2019-06-10T12:07:55.756Z,1.70
2019-06-10T12:10:25.480Z,1.27
2019-06-10T12:12:58.937Z,1.20
2019-06-10T12:15:29.265Z,1.20
2019-06-10T12:18:05.947Z,1.25
2019-06-10T12:20:35.759Z,1.12
2019-06-10T12:23:06.821Z,0.75
2019-06-10T12:25:39.670Z,1.20
2019-06-10T12:28:12.747Z,0.82
2019-06-10T12:30:43.365Z,1.15
2019-06-10T12:33:21.613Z,0.90
2019-06-10T12:35:47.277Z,0.70
2019-06-10T12:38:18.854Z,0.72
2019-06-10T12:40:49.908Z,1.00
2019-06-10T12:43:23.138Z,0.88
2019-06-10T12:45:55.699Z,0.70
2019-06-10T12:48:28.858Z,0.53
2019-06-10T12:51:06.329Z,0.70
2019-06-10T12:53:34.547Z,0.50
2019-06-10T12:56:10.633Z,0.50
2019-06-10T12:58:38.402Z,0.75
2019-06-10T13:01:09.434Z,0.70
2019-06-10T13:03:43.705Z,0.60
2019-06-10T13:06:16.322Z,0.70
2019-06-10T13:08:48.008Z,0.85
2019-06-10T13:11:19.057Z,0.70
2019-06-10T13:13:50.116Z,0.70
2019-06-10T13:16:21.201Z,0.60
2019-06-10T13:18:52.593Z,0.60
2019-06-10T13:21:24.055Z,0.78
2019-06-10T13:23:56.033Z,0.82
2019-06-10T13:26:27.318Z,0.62
2019-06-10T13:28:58.983Z,0.78
2019-06-10T13:31:32.971Z,0.50
2019-06-10T13:34:08.768Z,0.57
2019-06-10T13:36:36.777Z,0.65
2019-06-10T13:39:10.347Z,0.57
2019-06-10T13:41:43.843Z,0.40
2019-06-10T13:44:16.406Z,0.20
2019-06-10T13:46:46.831Z,0.30
2019-06-10T13:49:18.300Z,0.40
2019-06-10T13:51:49.384Z,0.40
2019-06-10T13:54:23.140Z,0.50
2019-06-10T13:56:54.238Z,1.37
2019-06-10T13:59:25.329Z,0.60
2019-06-10T14:01:57.511Z,0.42
2019-06-10T14:04:28.511Z,0.40
2019-06-10T14:07:02.412Z,0.50
2019-06-10T14:09:33.114Z,0.40
2019-06-10T14:12:05.843Z,0.57
2019-06-10T14:14:37.055Z,0.50
2019-06-10T14:17:09.733Z,0.50
2019-06-10T14:19:43.119Z,0.65
2019-06-10T14:22:16.020Z,0.62
2019-06-10T14:24:46.266Z,0.60
2019-06-10T14:27:21.175Z,0.75
2019-06-10T14:29:52.891Z,0.60
2019-06-10T14:32:24.085Z,0.62
2019-06-10T14:34:55.248Z,0.72
2019-06-10T14:37:35.709Z,0.93
2019-06-10T14:39:59.018Z,0.70
2019-06-10T14:42:32.209Z,0.78
2019-06-10T14:45:04.438Z,0.80
2019-06-10T14:47:36.706Z,0.50
2019-06-10T14:50:15.348Z,0.60
2019-06-10T14:52:44.195Z,0.70
2019-06-10T14:55:18.376Z,0.70
2019-06-10T14:57:48.268Z,0.60
2019-06-10T15:00:19.609Z,0.70
2019-06-10T15:02:53.405Z,0.57
2019-06-10T15:05:23.468Z,0.68
2019-06-10T15:07:54.550Z,0.60
2019-06-10T15:10:25.541Z,0.55
2019-06-10T15:12:56.654Z,0.50
2019-06-10T15:15:27.712Z,0.60
2019-06-10T15:17:58.740Z,0.50
2019-06-10T15:20:29.808Z,0.50
2019-06-10T15:23:00.844Z,0.60
2019-06-10T15:25:48.689Z,0.70
2019-06-10T15:28:04.688Z,0.75
2019-06-10T15:30:35.720Z,0.62
2019-06-10T15:33:06.726Z,0.80
2019-06-10T15:35:37.715Z,0.60
2019-06-10T15:38:08.911Z,0.70
2019-06-10T15:40:39.949Z,0.70
2019-06-10T15:43:11.831Z,0.82
2019-06-10T15:45:43.291Z,0.90
2019-06-10T15:48:17.261Z,1.10
2019-06-10T15:50:47.353Z,0.78
2019-06-10T15:53:26.391Z,0.75
2019-06-10T15:56:29.977Z,0.68
2019-06-10T15:58:33.171Z,0.80
2019-06-10T16:01:04.325Z,0.70
2019-06-10T16:03:35.430Z,0.70
2019-06-10T16:06:06.431Z,0.62
2019-06-10T16:08:37.442Z,0.60
2019-06-10T16:11:08.469Z,1.10
2019-06-10T16:13:39.479Z,0.65
2019-06-10T16:16:10.475Z,0.60
2019-06-10T16:18:42.303Z,0.60
2019-06-10T16:21:17.454Z,0.53
2019-06-10T16:23:49.443Z,0.60
2019-06-10T16:26:23.493Z,0.60
2019-06-10T16:28:53.228Z,0.62
2019-06-10T16:31:27.127Z,0.70
2019-06-10T16:33:56.987Z,0.62
2019-06-10T16:36:28.251Z,0.70
2019-06-10T16:38:59.417Z,0.80
2019-06-10T16:41:32.390Z,0.60
2019-06-10T16:44:03.448Z,0.70
2019-06-10T16:46:34.519Z,0.70
2019-06-10T16:49:05.622Z,0.75
2019-06-10T16:51:36.627Z,0.70
2019-06-10T16:54:07.623Z,0.70
2019-06-10T16:56:38.626Z,0.50
2019-06-10T16:59:12.195Z,0.90
2019-06-10T17:01:42.886Z,0.80
2019-06-10T17:04:14.115Z,0.90
2019-06-10T17:06:45.103Z,0.82
2019-06-10T17:09:16.128Z,0.60
2019-06-10T17:11:47.114Z,0.70
2019-06-10T17:14:18.317Z,1.35
2019-06-10T17:16:49.454Z,1.32
2019-06-10T17:19:22.994Z,1.00
2019-06-10T17:21:53.313Z,1.60
2019-06-10T17:24:27.178Z,1.22
2019-06-10T17:26:57.238Z,2.42
2019-06-10T17:29:29.308Z,1.40
2019-06-10T17:32:02.765Z,1.10
2019-06-10T17:34:34.221Z,0.90
2019-06-10T17:37:05.436Z,1.05
2019-06-10T17:39:36.514Z,1.00
2019-06-10T17:42:07.577Z,0.57
2019-06-10T17:44:38.589Z,0.80
2019-06-10T17:47:09.588Z,0.78
2019-06-10T17:49:41.940Z,0.55
2019-06-10T17:52:13.194Z,0.75
2019-06-10T17:54:44.168Z,1.00
2019-06-10T17:57:15.172Z,0.90
2019-06-10T17:59:46.254Z,0.80
2019-06-10T18:02:17.526Z,1.30
2019-06-10T18:04:48.529Z,0.98
2019-06-10T18:07:19.598Z,0.85
2019-06-10T18:09:52.977Z,1.00
2019-06-10T18:12:24.231Z,1.07
2019-06-10T18:14:55.242Z,1.30
2019-06-10T18:17:27.510Z,1.32
2019-06-10T18:19:59.017Z,1.10
2019-06-10T18:22:31.219Z,0.78
2019-06-10T18:25:04.540Z,0.93
2019-06-10T18:27:36.782Z,0.90
2019-06-10T18:30:11.463Z,1.22
2019-06-10T18:32:42.961Z,1.32
2019-06-10T18:35:14.470Z,1.20
2019-06-10T18:37:45.520Z,1.12
2019-06-10T18:40:16.736Z,0.85
2019-06-10T18:42:47.739Z,1.20
2019-06-10T18:45:19.143Z,1.10
2019-06-10T18:47:52.976Z,1.07
2019-06-10T18:50:26.035Z,0.95
2019-06-10T18:52:58.869Z,1.40
2019-06-10T18:55:30.895Z,1.90
2019-06-10T18:58:02.871Z,1.35
2019-06-10T19:00:51.858Z,1.02
2019-06-10T19:03:12.691Z,2.12
2019-06-10T19:05:42.120Z,3.00
2019-06-10T19:08:13.309Z,1.92
2019-06-10T19:10:44.472Z,1.40
2019-06-10T19:13:15.513Z,1.72
2019-06-10T19:15:46.605Z,1.87
2019-06-10T19:18:17.601Z,2.62
2019-06-10T19:20:48.672Z,2.30
2019-06-10T19:23:19.747Z,1.30
2019-06-10T19:25:52.539Z,1.75
2019-06-10T19:28:23.947Z,1.90
2019-06-10T19:30:55.032Z,2.42
2019-06-10T19:33:26.030Z,1.30
2019-06-10T19:35:57.056Z,2.00
2019-06-10T19:38:28.146Z,1.15
2019-06-10T19:40:59.226Z,1.50
2019-06-10T19:43:30.223Z,2.15
2019-06-10T19:46:04.388Z,2.10
2019-06-10T19:48:38.429Z,2.42
2019-06-10T19:51:07.751Z,3.52
2019-06-10T19:53:38.942Z,4.75
2019-06-10T19:56:10.024Z,3.42
2019-06-10T19:58:43.451Z,2.77
2019-06-10T20:01:14.029Z,1.52
2019-06-10T20:03:46.990Z,1.57
2019-06-10T20:06:17.742Z,2.22
2019-06-10T20:08:52.338Z,2.37
2019-06-10T20:11:23.481Z,1.62
2019-06-10T20:13:54.559Z,1.67
2019-06-10T20:16:27.194Z,1.98
2019-06-10T20:18:58.307Z,2.02
2019-06-10T20:21:48.972Z,1.70
2019-06-10T20:24:41.344Z,1.60
2019-06-10T20:27:33.044Z,2.40
2019-06-10T20:30:28.431Z,2.00
2019-06-10T20:33:14.428Z,2.15
2019-06-10T20:36:07.051Z,1.75
2019-06-10T20:38:54.717Z,4.22
2019-06-10T20:41:47.237Z,3.30
2019-06-10T20:44:34.378Z,1.85
2019-06-10T20:51:50.208Z,2.80
2019-06-10T20:54:32.289Z,1.98
2019-06-10T20:57:22.659Z,2.00
2019-06-10T21:00:22.341Z,2.00
2019-06-10T21:03:06.892Z,2.10
2019-06-10T21:05:57.764Z,2.35
2019-06-10T21:08:49.597Z,2.98
2019-06-10T21:11:45.145Z,2.08
2019-06-10T21:14:33.113Z,1.70
2019-06-10T21:21:35.890Z,2.10
2019-06-10T21:24:08.820Z,2.10
2019-06-10T21:26:43.335Z,2.17
2019-06-10T21:29:13.585Z,2.15
2019-06-10T21:31:47.000Z,2.08
2019-06-10T21:34:17.391Z,2.00
2019-06-10T21:36:49.415Z,2.52
2019-06-10T21:39:21.476Z,2.45
2019-06-10T21:41:54.510Z,2.65
2019-06-10T21:44:25.737Z,2.70
2019-06-10T21:46:58.336Z,2.08
2019-06-10T21:49:29.365Z,2.42
2019-06-10T21:52:02.659Z,2.20
2019-06-10T21:54:33.157Z,2.20
2019-06-10T21:57:04.138Z,1.85
2019-06-10T21:59:35.158Z,2.40
2019-06-10T22:02:06.401Z,2.10
2019-06-10T22:08:37.349Z,2.40
2019-06-10T22:11:08.412Z,2.80
2019-06-10T22:13:39.454Z,2.47
2019-06-10T22:16:10.497Z,2.67
2019-06-10T22:18:42.541Z,2.42
2019-06-10T22:21:14.743Z,2.65
2019-06-10T22:23:46.668Z,3.05
2019-06-10T22:26:17.723Z,2.37
2019-06-10T22:28:49.526Z,2.40
2019-06-10T22:31:23.868Z,2.60
2019-06-10T22:33:55.848Z,2.80
2019-06-10T22:36:26.021Z,2.33
2019-06-10T22:38:59.121Z,2.40
2019-06-10T22:41:29.935Z,2.40
2019-06-10T22:44:03.310Z,2.70
2019-06-10T22:46:33.652Z,2.30
2019-06-10T22:49:04.784Z,2.27
2019-06-10T22:51:35.819Z,2.58
2019-06-10T22:54:06.814Z,2.58
2019-06-10T22:56:37.824Z,2.50
2019-06-10T22:59:08.928Z,2.70
2019-06-10T23:01:42.215Z,2.40
2019-06-10T23:04:13.484Z,2.50
2019-06-10T23:06:44.688Z,2.60
2019-06-10T23:09:15.710Z,2.85
2019-06-10T23:11:46.811Z,2.58
2019-06-10T23:14:17.909Z,2.77
2019-06-10T23:16:49.248Z,2.80
2019-06-10T23:19:20.233Z,2.62
2019-06-10T23:21:53.805Z,2.90
2019-06-10T23:24:24.111Z,2.70
2019-06-10T23:26:55.887Z,3.00
2019-06-10T23:29:26.991Z,2.92
2019-06-10T23:32:06.109Z,2.90
2019-06-10T23:34:33.059Z,2.70
2019-06-10T23:37:04.310Z,2.92
2019-06-10T23:39:35.314Z,2.90
2019-06-10T23:42:06.479Z,2.98
2019-06-10T23:44:37.469Z,3.00
2019-06-10T23:47:08.551Z,2.65
2019-06-10T23:49:39.633Z,3.10
2019-06-10T23:52:12.673Z,2.47
2019-06-10T23:54:43.358Z,2.65
2019-06-10T23:57:14.443Z,2.62
2019-06-10T23:59:45.440Z,2.75
